Time;durP1;ratioP1;P1;durP2;ratioP2;P2;SDS_P1;SDS_P2;PMS_P1;PMS_P2;Temp;Humidity;BMP_temperature;BMP_pressure;BME280_temperature;BME280_humidity;BME280_pressure;Samples;Min_cycle;Max_cycle;Signal;HPM_P1;HPM_P2
2022/10/05 04:02:39;;;;;;;7.03;6.00;;;4.70;96.30;;;;;;4904981;29;20603;-77
2022/10/05 04:05:18;;;;;;;2.13;1.47;;;4.60;96.30;;;;;;4908528;29;20425;-77
2022/10/05 04:08:19;;;;;;;4.70;1.77;;;4.70;96.30;;;;;;4909455;29;20431;-77
2022/10/05 04:10:49;;;;;;;3.03;1.90;;;4.80;96.30;;;;;;4898430;29;20436;-77
2022/10/05 04:13:29;;;;;;;4.03;1.30;;;4.80;96.30;;;;;;4898132;29;20437;-77
2022/10/05 04:16:10;;;;;;;3.53;3.23;;;4.80;96.30;;;;;;4896906;29;20416;-77
2022/10/05 04:18:37;;;;;;;3.67;2.57;;;4.70;96.30;;;;;;4897359;29;20418;-77
2022/10/05 04:21:34;;;;;;;7.30;4.37;;;4.60;96.30;;;;;;4897724;29;20501;-75
2022/10/05 04:24:30;;;;;;;34.47;21.97;;;4.60;96.30;;;;;;4897748;29;20461;-77
2022/10/05 04:27:05;;;;;;;17.83;10.63;;;4.60;96.30;;;;;;4896684;29;20893;-77
2022/10/05 04:29:39;;;;;;;5.23;3.73;;;4.80;96.30;;;;;;4897619;29;20389;-75
2022/10/05 04:32:26;;;;;;;8.07;4.23;;;4.90;96.30;;;;;;4897523;29;20421;-75
2022/10/05 04:35:23;;;;;;;4.60;3.63;;;4.90;96.30;;;;;;4896320;29;20417;-77
2022/10/05 04:38:22;;;;;;;12.37;3.10;;;4.90;96.30;;;;;;4895489;29;20432;-77
2022/10/05 04:41:08;;;;;;;12.20;8.80;;;4.90;96.30;;;;;;4896156;29;20449;-76
2022/10/05 04:43:52;;;;;;;8.77;6.57;;;4.80;96.30;;;;;;4897140;29;20448;-76
2022/10/05 04:46:37;;;;;;;7.60;6.13;;;4.70;96.30;;;;;;4903085;29;20491;-75
2022/10/05 04:49:21;;;;;;;23.27;18.27;;;4.80;96.30;;;;;;4914206;29;20559;-77
2022/10/05 04:51:53;;;;;;;13.50;8.93;;;4.80;96.30;;;;;;4916118;29;20920;-77
2022/10/05 04:54:42;;;;;;;11.53;7.73;;;4.90;96.30;;;;;;4919494;29;20420;-74
2022/10/05 04:57:30;;;;;;;3.03;2.30;;;5.00;96.30;;;;;;4915572;29;20676;-79
2022/10/05 05:00:28;;;;;;;15.43;2.40;;;5.00;96.30;;;;;;4916827;29;20401;-77
2022/10/05 05:03:18;;;;;;;5.60;2.50;;;5.00;96.30;;;;;;4913279;29;20472;-77
2022/10/05 05:06:08;;;;;;;3.93;1.87;;;5.00;96.30;;;;;;4916558;29;20444;-77
2022/10/05 05:09:01;;;;;;;3.53;1.83;;;4.90;96.30;;;;;;4915064;29;20397;-76
2022/10/05 05:12:31;;;;;;;5.43;2.90;;;5.00;96.30;;;;;;4902217;29;20432;-77
2022/10/05 05:15:25;;;;;;;3.00;2.30;;;4.80;96.30;;;;;;4912098;29;20951;-78
2022/10/05 05:18:05;;;;;;;3.67;2.23;;;4.80;96.30;;;;;;4879588;29;20436;-75
2022/10/05 05:20:42;;;;;;;9.37;2.50;;;4.80;96.30;;;;;;4899653;29;20465;-76
2022/10/05 05:23:19;;;;;;;2.63;2.13;;;4.70;96.30;;;;;;4909208;29;20474;-77
2022/10/05 05:25:55;;;;;;;5.70;1.90;;;4.80;96.30;;;;;;4906549;29;20417;-76
2022/10/05 05:28:32;;;;;;;2.80;2.00;;;4.80;96.30;;;;;;4896807;29;20432;-76
2022/10/05 05:31:42;;;;;;;2.30;1.90;;;4.90;96.30;;;;;;4906887;29;20941;-77
2022/10/05 05:34:39;;;;;;;3.83;2.30;;;5.20;96.30;;;;;;4909861;29;20428;-77
2022/10/05 05:37:23;;;;;;;3.07;1.87;;;5.30;96.30;;;;;;4910149;29;20818;-76
2022/10/05 05:40:05;;;;;;;3.70;1.67;;;5.40;96.30;;;;;;4915954;29;20451;-75
2022/10/05 05:42:54;;;;;;;2.37;1.50;;;5.50;96.30;;;;;;4939444;29;20539;-76
2022/10/05 05:45:27;;;;;;;8.23;2.00;;;5.40;96.30;;;;;;4919308;29;20431;-77
2022/10/05 05:47:57;;;;;;;1.93;1.63;;;5.40;96.30;;;;;;4911317;29;20492;-76
2022/10/05 05:50:31;;;;;;;3.60;1.80;;;5.50;96.30;;;;;;4904661;29;20410;-77
2022/10/05 05:53:17;;;;;;;4.53;1.70;;;5.60;96.30;;;;;;4904535;29;20445;-76
2022/10/05 05:55:52;;;;;;;5.17;2.07;;;5.70;96.30;;;;;;4913054;29;20428;-76
2022/10/05 05:58:36;;;;;;;5.50;3.33;;;5.80;96.30;;;;;;4913013;29;20419;-75
2022/10/05 06:01:26;;;;;;;4.03;2.63;;;5.90;96.30;;;;;;4900222;29;20452;-76
2022/10/05 06:04:11;;;;;;;4.87;2.17;;;6.10;96.30;;;;;;4900399;29;20397;-75
2022/10/05 06:06:43;;;;;;;5.00;2.70;;;6.20;96.30;;;;;;4900412;29;20917;-75
2022/10/05 06:09:38;;;;;;;7.57;3.40;;;6.40;96.30;;;;;;4916586;29;20420;-76
2022/10/05 06:12:23;;;;;;;7.90;5.27;;;6.40;96.30;;;;;;4918478;29;20435;-75
2022/10/05 06:15:03;;;;;;;7.60;5.40;;;6.60;96.30;;;;;;4918658;29;20407;-76
2022/10/05 06:17:34;;;;;;;8.17;5.57;;;6.90;96.30;;;;;;4919751;29;20755;-76
2022/10/05 06:20:03;;;;;;;7.43;5.73;;;7.50;96.30;;;;;;4900148;29;20421;-73
2022/10/05 06:22:38;;;;;;;7.03;4.73;;;8.40;96.30;;;;;;4899879;29;20606;-74
2022/10/05 06:25:12;;;;;;;5.07;3.43;;;8.90;96.30;;;;;;4899952;29;20417;-73
2022/10/05 06:27:57;;;;;;;8.63;3.20;;;9.60;96.30;;;;;;4898616;29;20929;-74
2022/10/05 06:30:22;;;;;;;4.20;3.00;;;10.00;96.30;;;;;;4900035;29;20444;-74
2022/10/05 06:33:21;;;;;;;6.90;2.63;;;10.20;96.30;;;;;;4898728;29;20453;-74
2022/10/05 06:36:05;;;;;;;9.80;4.50;;;10.40;96.30;;;;;;4899890;29;20188;-74
2022/10/05 06:38:48;;;;;;;7.47;3.90;;;11.10;96.30;;;;;;4918435;29;20416;-74
2022/10/05 06:41:40;;;;;;;1.90;1.70;;;11.90;96.30;;;;;;4918508;29;20467;-76
2022/10/05 06:44:22;;;;;;;4.67;1.90;;;12.50;96.30;;;;;;4918702;29;20416;-75
2022/10/05 06:47:01;;;;;;;4.40;2.07;;;12.70;96.30;;;;;;4917150;29;20476;-75
2022/10/05 06:49:29;;;;;;;3.43;1.70;;;12.90;96.30;;;;;;4917906;29;20396;-74
2022/10/05 06:51:57;;;;;;;3.97;1.30;;;12.70;96.30;;;;;;4918548;29;20499;-74
2022/10/05 06:54:54;;;;;;;4.93;1.50;;;12.20;96.30;;;;;;4918490;29;20419;-75
2022/10/05 06:57:47;;;;;;;1.80;1.40;;;11.90;96.30;;;;;;4916551;29;20424;-74
2022/10/05 07:00:23;;;;;;;6.40;3.87;;;12.00;96.30;;;;;;4918117;29;20412;-74
2022/10/05 07:03:01;;;;;;;9.73;7.57;;;12.50;96.30;;;;;;4918223;29;20464;-74
2022/10/05 07:05:38;;;;;;;4.80;3.60;;;13.00;96.30;;;;;;4918399;29;20502;-75
2022/10/05 07:08:12;;;;;;;4.20;2.50;;;13.70;96.30;;;;;;4917925;29;20404;-76
2022/10/05 07:11:17;;;;;;;6.20;4.43;;;14.10;96.30;;;;;;4916850;29;20472;-75
2022/10/05 07:14:18;;;;;;;9.53;8.00;;;14.30;96.30;;;;;;4918213;29;20492;-76
2022/10/05 07:17:20;;;;;;;2.07;1.60;;;14.80;96.30;;;;;;4917963;29;20873;-78
2022/10/05 07:20:15;;;;;;;2.03;1.73;;;15.40;96.30;;;;;;4918057;29;20416;-75
2022/10/05 07:22:57;;;;;;;2.67;1.63;;;15.40;96.30;;;;;;4917952;29;20940;-75
2022/10/05 07:26:01;;;;;;;5.20;1.70;;;15.30;96.30;;;;;;4917889;29;20455;-75
2022/10/05 07:28:32;;;;;;;2.70;1.40;;;15.00;96.30;;;;;;4917623;29;20442;-75
2022/10/05 07:31:01;;;;;;;4.80;1.67;;;15.00;96.30;;;;;;4917880;29;20429;-75
2022/10/05 07:33:45;;;;;;;1.50;1.20;;;14.80;96.30;;;;;;4917916;29;20475;-76
2022/10/05 07:39:36;;;;;;;4.47;1.57;;;14.40;96.30;;;;;;4910263;29;20429;-76
2022/10/05 07:42:23;;;;;;;2.90;1.57;;;14.00;96.30;;;;;;4898543;29;20464;-76
2022/10/05 07:44:57;;;;;;;2.40;1.33;;;13.70;96.30;;;;;;4898614;29;20409;-76
2022/10/05 07:47:47;;;;;;;2.50;1.53;;;13.50;96.30;;;;;;4898368;29;20401;-75
2022/10/05 07:50:34;;;;;;;2.53;1.70;;;13.50;96.30;;;;;;4898759;29;20756;-77
2022/10/05 07:53:16;;;;;;;4.70;1.50;;;13.40;96.30;;;;;;4910987;29;20408;-76
2022/10/05 07:55:54;;;;;;;3.47;1.70;;;13.50;96.30;;;;;;4916139;29;20420;-78
2022/10/05 07:58:28;;;;;;;2.20;1.50;;;13.50;96.30;;;;;;4917150;29;20966;-76
2022/10/05 08:01:22;;;;;;;14.13;2.23;;;13.70;96.30;;;;;;4916739;29;20934;-76
2022/10/05 08:03:59;;;;;;;1.97;1.40;;;13.90;96.30;;;;;;4917220;29;20420;-76
2022/10/05 08:06:39;;;;;;;4.40;1.93;;;13.90;96.30;;;;;;4916329;29;20404;-75
2022/10/05 08:09:29;;;;;;;3.70;1.60;;;13.80;96.30;;;;;;4898916;29;20428;-76
2022/10/05 08:12:19;;;;;;;3.77;1.80;;;13.80;96.30;;;;;;4898147;29;21009;-76
2022/10/05 08:14:52;;;;;;;3.90;1.90;;;13.90;96.30;;;;;;4898230;29;20535;-76
2022/10/05 08:17:28;;;;;;;4.93;2.37;;;13.80;96.30;;;;;;4897769;29;20413;-76
2022/10/05 08:20:41;;;;;;;3.50;1.73;;;13.70;96.30;;;;;;4916879;29;20416;-76
2022/10/05 08:23:27;;;;;;;2.40;1.73;;;13.70;96.30;;;;;;4899132;29;20490;-76
2022/10/05 08:25:57;;;;;;;4.80;1.80;;;13.90;96.30;;;;;;4916867;29;20479;-77
2022/10/05 08:28:28;;;;;;;5.40;1.60;;;14.00;96.30;;;;;;4916513;29;20417;-76
2022/10/05 08:31:23;;;;;;;6.23;2.00;;;14.10;96.30;;;;;;4916518;29;20440;-77
2022/10/05 08:34:10;;;;;;;2.70;1.57;;;14.20;96.30;;;;;;4915363;29;20932;-77
2022/10/05 08:36:38;;;;;;;2.10;1.53;;;14.30;96.30;;;;;;4916526;29;20463;-76
2022/10/05 08:39:17;;;;;;;11.70;1.70;;;14.60;96.30;;;;;;4916262;29;20448;-77
2022/10/05 08:42:10;;;;;;;2.17;1.33;;;14.80;96.30;;;;;;4916251;29;20440;-77
2022/10/05 08:45:07;;;;;;;3.67;1.80;;;15.40;96.30;;;;;;4915808;29;20462;-77
2022/10/05 08:48:13;;;;;;;2.20;1.33;;;16.50;96.30;;;;;;4915748;29;20416;-76
2022/10/05 08:51:14;;;;;;;5.60;1.60;;;17.30;96.30;;;;;;4914061;29;20531;-77
2022/10/05 08:54:21;;;;;;;2.33;1.80;;;18.30;96.30;;;;;;4916075;29;20432;-77
2022/10/05 08:57:25;;;;;;;3.93;2.00;;;18.60;96.30;;;;;;4901344;29;20428;-76
2022/10/05 09:00:11;;;;;;;19.00;3.83;;;18.80;96.30;;;;;;4905064;29;20915;-76
2022/10/05 09:03:19;;;;;;;2.97;1.73;;;19.50;96.30;;;;;;4916194;29;20853;-77
2022/10/05 09:05:57;;;;;;;3.77;2.30;;;20.00;96.30;;;;;;4916192;29;20408;-77
2022/10/05 09:08:44;;;;;;;1.50;1.27;;;20.60;96.30;;;;;;4915954;29;20412;-77
2022/10/05 09:11:28;;;;;;;2.50;1.23;;;20.90;94.70;;;;;;4915828;29;20844;-77
2022/10/05 09:14:20;;;;;;;1.60;0.90;;;21.20;92.50;;;;;;4915778;29;20416;-76
2022/10/05 09:17:12;;;;;;;2.80;1.10;;;20.80;93.10;;;;;;4915871;29;20909;-76
2022/10/05 09:20:09;;;;;;;7.70;1.57;;;20.70;94.20;;;;;;4908680;29;20421;-77
2022/10/05 09:22:54;;;;;;;1.60;1.13;;;20.60;93.30;;;;;;4915991;29;20973;-77
2022/10/05 09:25:24;;;;;;;1.90;1.20;;;20.80;94.30;;;;;;4915932;29;20447;-77
2022/10/05 09:28:04;;;;;;;5.00;1.20;;;20.50;94.20;;;;;;4915674;29;20507;-77
2022/10/05 09:30:44;;;;;;;1.57;1.23;;;20.20;95.40;;;;;;4915328;29;20440;-76
2022/10/05 09:33:26;;;;;;;1.50;1.07;;;19.90;96.30;;;;;;4915604;29;20415;-77
2022/10/05 09:36:10;;;;;;;2.30;0.90;;;19.40;96.20;;;;;;4915796;29;20416;-77
2022/10/05 09:38:49;;;;;;;4.30;1.00;;;18.90;96.30;;;;;;4915549;29;20439;-76
2022/10/05 09:41:32;;;;;;;1.70;1.00;;;18.60;96.30;;;;;;4915787;29;20928;-77
2022/10/05 09:44:28;;;;;;;2.97;1.17;;;18.80;96.30;;;;;;4908201;29;20528;-75
2022/10/05 09:47:26;;;;;;;2.80;0.90;;;18.90;96.30;;;;;;4896210;29;20406;-75
2022/10/05 09:49:55;;;;;;;1.30;1.00;;;19.10;96.30;;;;;;4896610;29;20968;-76
2022/10/05 09:52:56;;;;;;;1.63;1.27;;;19.30;96.30;;;;;;4896790;29;20784;-75
2022/10/05 09:55:38;;;;;;;2.60;1.53;;;19.50;96.30;;;;;;4896804;29;20418;-75
2022/10/05 09:58:27;;;;;;;1.97;1.20;;;19.70;96.30;;;;;;4896375;29;20898;-76
2022/10/05 10:01:11;;;;;;;2.40;1.37;;;20.30;95.80;;;;;;4905445;29;20485;-76
2022/10/05 10:04:06;;;;;;;1.40;0.87;;;20.80;95.50;;;;;;4914704;29;20463;-76
2022/10/05 10:06:53;;;;;;;5.67;0.90;;;21.00;94.70;;;;;;4915558;29;20416;-76
2022/10/05 10:09:50;;;;;;;2.57;1.00;;;21.20;94.50;;;;;;4915576;29;20503;-76
2022/10/05 10:12:34;;;;;;;2.60;1.53;;;21.90;93.70;;;;;;4915297;29;20432;-76
2022/10/05 10:15:28;;;;;;;2.60;0.90;;;22.60;89.90;;;;;;4915515;29;20840;-76
2022/10/05 10:18:27;;;;;;;1.47;0.90;;;23.10;87.60;;;;;;4915157;29;20404;-76
2022/10/05 10:21:16;;;;;;;1.90;1.10;;;23.60;93.50;;;;;;4915277;29;20440;-78
2022/10/05 10:24:19;;;;;;;2.70;1.20;;;23.90;90.70;;;;;;4915539;29;20546;-76
2022/10/05 10:27:11;;;;;;;1.40;1.10;;;23.90;87.40;;;;;;4918714;29;20400;-76
2022/10/05 10:29:46;;;;;;;2.50;1.23;;;23.40;89.60;;;;;;4918887;29;20412;-76
2022/10/05 10:32:11;;;;;;;1.30;0.97;;;22.70;90.40;;;;;;4918749;29;20439;-76
2022/10/05 10:34:59;;;;;;;1.30;1.00;;;22.40;90.50;;;;;;4917568;29;20427;-76
2022/10/05 10:37:30;;;;;;;1.73;1.10;;;21.90;90.50;;;;;;4918668;29;20580;-76
2022/10/05 10:40:24;;;;;;;11.03;1.03;;;21.70;92.90;;;;;;4918854;29;20773;-76
2022/10/05 10:43:28;;;;;;;1.47;1.10;;;21.40;92.20;;;;;;4917373;29;20827;-76
2022/10/05 10:46:12;;;;;;;2.70;0.90;;;21.20;90.90;;;;;;4918707;29;20436;-77
2022/10/05 10:48:47;;;;;;;1.77;0.93;;;21.10;90.50;;;;;;4918390;29;20401;-76
2022/10/05 10:51:31;;;;;;;3.93;0.90;;;21.10;93.60;;;;;;4918405;29;20522;-76
2022/10/05 10:54:40;;;;;;;3.50;1.50;;;21.30;88.10;;;;;;4919205;29;20389;-76
2022/10/05 10:57:44;;;;;;;1.60;0.70;;;21.10;88.20;;;;;;4918754;29;20495;-76
2022/10/05 11:05:36;;;;;;;2.40;1.10;;;21.00;91.40;;;;;;6003857;23;20447;-76
2022/10/05 11:08:05;;;;;;;1.60;0.80;;;21.00;91.30;;;;;;4955056;28;20422;-76
2022/10/05 11:11:11;;;;;;;2.13;1.00;;;21.00;87.70;;;;;;4953569;28;20416;-76
2022/10/05 11:13:52;;;;;;;1.93;0.80;;;20.50;88.70;;;;;;4937071;29;20491;-76
2022/10/05 11:16:21;;;;;;;3.10;1.23;;;20.50;91.50;;;;;;4937145;29;20412;-76
2022/10/05 11:19:03;;;;;;;2.27;1.13;;;20.60;90.60;;;;;;4936816;29;20515;-77
2022/10/05 11:21:49;;;;;;;1.70;0.80;;;20.70;91.00;;;;;;4935782;29;20531;-76
2022/10/05 11:24:37;;;;;;;1.70;1.07;;;20.90;87.10;;;;;;4937126;29;20424;-76
2022/10/05 11:27:39;;;;;;;2.50;0.90;;;20.90;86.60;;;;;;4944453;29;20940;-77
2022/10/05 11:30:27;;;;;;;1.10;0.80;;;21.00;87.90;;;;;;4931600;29;20415;-77
2022/10/05 11:33:10;;;;;;;2.13;1.00;;;21.20;89.40;;;;;;4932557;29;20426;-77
2022/10/05 11:35:52;;;;;;;4.30;1.03;;;21.60;86.20;;;;;;4925995;29;20420;-77
2022/10/05 11:38:36;;;;;;;1.10;0.90;;;21.90;88.40;;;;;;4934476;29;20422;-76
2022/10/05 11:41:07;;;;;;;1.30;1.03;;;22.00;83.60;;;;;;4936696;29;20435;-78
2022/10/05 11:43:56;;;;;;;1.63;1.00;;;22.00;84.90;;;;;;4936143;29;20912;-77
2022/10/05 11:46:24;;;;;;;2.87;1.10;;;22.10;86.00;;;;;;4935264;29;20803;-77
2022/10/05 11:48:59;;;;;;;1.40;1.00;;;22.10;83.50;;;;;;4936185;29;20455;-77
2022/10/05 11:51:42;;;;;;;1.30;1.17;;;22.50;86.80;;;;;;4923171;29;20440;-76
2022/10/05 11:54:08;;;;;;;1.63;1.00;;;22.30;84.30;;;;;;4926060;29;20416;-76
2022/10/05 11:56:50;;;;;;;1.20;1.00;;;22.20;85.00;;;;;;4924749;29;20483;-77
2022/10/05 11:59:52;;;;;;;3.40;1.27;;;22.30;84.40;;;;;;4927073;29;20625;-77
2022/10/05 12:02:55;;;;;;;1.53;1.07;;;21.70;84.20;;;;;;4930099;29;20562;-76
2022/10/05 12:05:38;;;;;;;1.83;1.17;;;21.60;86.40;;;;;;4945850;28;20489;-77
2022/10/05 12:08:41;;;;;;;1.73;1.10;;;21.80;84.30;;;;;;4942364;29;20431;-76
2022/10/05 12:11:36;;;;;;;1.83;0.87;;;21.70;83.60;;;;;;4916767;29;20478;-77
2022/10/05 12:14:10;;;;;;;1.13;0.93;;;21.80;86.60;;;;;;4916972;29;20412;-76
2022/10/05 12:16:47;;;;;;;3.30;1.20;;;21.90;84.80;;;;;;4927685;29;20412;-76
2022/10/05 12:19:41;;;;;;;1.70;1.03;;;22.00;86.20;;;;;;4929955;29;20412;-76
2022/10/05 12:22:20;;;;;;;1.40;1.13;;;22.00;85.50;;;;;;4941437;29;20471;-76
2022/10/05 12:25:20;;;;;;;3.63;1.20;;;22.20;84.10;;;;;;4935682;29;20419;-77
2022/10/05 12:27:50;;;;;;;2.07;1.20;;;22.00;86.70;;;;;;4926949;29;20515;-76
2022/10/05 12:30:25;;;;;;;2.13;1.20;;;21.90;87.70;;;;;;4925945;29;20782;-77
2022/10/05 12:33:04;;;;;;;1.00;0.90;;;22.00;86.70;;;;;;4916642;29;20905;-76
2022/10/05 12:35:42;;;;;;;1.40;1.10;;;22.30;84.50;;;;;;4933648;29;20447;-76
2022/10/05 12:38:35;;;;;;;2.27;0.87;;;22.30;85.30;;;;;;4935290;29;20415;-77
2022/10/05 12:41:26;;;;;;;6.13;1.13;;;22.30;83.80;;;;;;4935464;29;20522;-76
2022/10/05 12:44:13;;;;;;;1.27;1.10;;;21.90;86.50;;;;;;4919354;29;20464;-76
2022/10/05 12:46:47;;;;;;;1.73;1.00;;;21.60;84.90;;;;;;4916541;29;20452;-76
2022/10/05 12:49:33;;;;;;;1.00;0.90;;;21.40;87.00;;;;;;4915999;29;20768;-76
2022/10/05 12:52:00;;;;;;;3.00;1.13;;;21.50;85.50;;;;;;4916464;29;20471;-76
2022/10/05 12:54:56;;;;;;;1.10;0.90;;;21.70;88.60;;;;;;4916192;29;20416;-77
2022/10/05 12:57:42;;;;;;;2.50;1.10;;;21.70;86.60;;;;;;4916218;29;20416;-76
2022/10/05 13:00:14;;;;;;;2.23;1.00;;;21.50;88.00;;;;;;4925849;29;20420;-78
2022/10/05 13:02:58;;;;;;;2.60;1.10;;;21.40;87.60;;;;;;4934903;28;20502;-76
2022/10/05 13:05:29;;;;;;;4.50;1.00;;;21.40;88.90;;;;;;4935024;29;20421;-76
2022/10/05 13:08:05;;;;;;;1.17;1.00;;;21.10;86.50;;;;;;4934910;29;20470;-77
2022/10/05 13:10:35;;;;;;;2.00;1.10;;;21.00;87.00;;;;;;4935105;29;20422;-76
2022/10/05 13:13:24;;;;;;;4.80;1.03;;;21.00;88.60;;;;;;4934945;29;20500;-76
2022/10/05 13:16:29;;;;;;;1.53;1.00;;;21.20;87.90;;;;;;4935073;29;20496;-76
2022/10/05 13:19:23;;;;;;;3.83;1.03;;;21.50;87.90;;;;;;4915685;29;20414;-77
2022/10/05 13:22:07;;;;;;;2.50;1.40;;;21.80;85.90;;;;;;4915085;29;20451;-77
2022/10/05 13:24:51;;;;;;;2.43;1.30;;;22.20;87.70;;;;;;4916042;29;20441;-76
2022/10/05 13:27:28;;;;;;;6.00;1.30;;;22.70;83.40;;;;;;4915861;29;20499;-76
2022/10/05 13:30:03;;;;;;;3.87;1.50;;;22.20;86.80;;;;;;4915923;29;20400;-77
2022/10/05 13:32:32;;;;;;;3.03;0.80;;;22.20;85.80;;;;;;4915925;29;20436;-76
2022/10/05 13:35:15;;;;;;;2.33;1.10;;;22.60;86.60;;;;;;4920771;29;20804;-77
2022/10/05 13:38:00;;;;;;;2.30;1.00;;;23.10;83.80;;;;;;4935117;29;20829;-76
2022/10/05 13:40:52;;;;;;;2.83;1.20;;;22.60;83.00;;;;;;4934781;29;20761;-77
2022/10/05 13:43:47;;;;;;;1.43;1.17;;;22.60;85.80;;;;;;4916288;29;20467;-77
2022/10/05 13:46:41;;;;;;;1.87;1.00;;;22.70;84.90;;;;;;4923325;29;20439;-77
2022/10/05 13:49:13;;;;;;;2.60;1.23;;;22.60;83.30;;;;;;4934440;29;20424;-76
2022/10/05 13:51:56;;;;;;;1.50;0.93;;;22.10;86.10;;;;;;4933215;29;20454;-77
2022/10/05 13:54:48;;;;;;;1.40;1.20;;;21.90;85.70;;;;;;4932921;29;20427;-76
2022/10/05 13:57:24;;;;;;;4.27;1.50;;;21.90;88.10;;;;;;4934200;29;20468;-76
2022/10/05 13:59:54;;;;;;;2.47;1.83;;;21.90;89.80;;;;;;4936912;29;20833;-76
2022/10/05 14:02:26;;;;;;;3.27;1.40;;;22.00;88.20;;;;;;4938153;29;20470;-76
2022/10/05 14:05:15;;;;;;;3.63;1.20;;;22.00;88.50;;;;;;4938417;29;20411;-77
2022/10/05 14:08:16;;;;;;;2.07;1.20;;;21.90;88.90;;;;;;4938137;29;21090;-76
2022/10/05 14:10:44;;;;;;;1.60;1.40;;;21.50;90.80;;;;;;4926868;29;20451;-77
2022/10/05 14:13:33;;;;;;;2.00;1.20;;;21.40;90.40;;;;;;4938254;29;20422;-76
2022/10/05 14:16:10;;;;;;;2.70;1.20;;;21.00;91.50;;;;;;4937739;29;20419;-76
2022/10/05 14:18:37;;;;;;;2.30;1.30;;;20.70;92.60;;;;;;4936822;29;21096;-76
2022/10/05 14:21:12;;;;;;;2.70;1.10;;;20.70;94.10;;;;;;4937923;29;20431;-77
2022/10/05 14:23:37;;;;;;;3.77;1.20;;;20.90;93.90;;;;;;4937935;29;20536;-77
2022/10/05 14:26:17;;;;;;;1.20;1.10;;;20.90;93.00;;;;;;4937817;29;20820;-76
2022/10/05 14:29:04;;;;;;;1.90;1.30;;;20.80;92.10;;;;;;4938186;29;20626;-77
2022/10/05 14:31:34;;;;;;;1.93;1.40;;;20.70;93.90;;;;;;4937690;29;20438;-76
2022/10/05 14:34:54;;;;;;;2.03;1.40;;;20.90;93.50;;;;;;4936995;29;20797;-75
2022/10/05 14:37:23;;;;;;;9.00;1.57;;;20.80;92.70;;;;;;4916365;29;20475;-75
2022/10/05 14:39:56;;;;;;;1.50;1.13;;;20.60;93.40;;;;;;4917718;28;20428;-75
2022/10/05 14:42:24;;;;;;;1.80;1.20;;;20.20;94.50;;;;;;4930280;29;20545;-75
2022/10/05 14:45:13;;;;;;;1.43;1.00;;;20.00;96.00;;;;;;4936165;29;20427;-75
2022/10/05 14:47:51;;;;;;;2.70;1.30;;;19.90;95.80;;;;;;4937509;29;20502;-76
2022/10/05 14:50:24;;;;;;;5.50;1.27;;;19.70;96.30;;;;;;4937505;29;20430;-75
2022/10/05 14:53:08;;;;;;;1.90;1.27;;;19.50;96.30;;;;;;4937513;29;20474;-75
2022/10/05 14:55:51;;;;;;;1.33;1.23;;;19.40;96.30;;;;;;4937331;29;20851;-75
2022/10/05 14:58:49;;;;;;;1.57;1.13;;;19.30;96.30;;;;;;4937285;29;20415;-75
2022/10/05 15:01:34;;;;;;;2.17;1.20;;;19.10;96.30;;;;;;4928213;29;20474;-76
2022/10/05 15:04:17;;;;;;;1.67;1.30;;;19.20;96.30;;;;;;4937293;29;20494;-75
2022/10/05 15:06:59;;;;;;;1.90;1.23;;;19.10;96.30;;;;;;4935667;29;20522;-76
2022/10/05 15:09:54;;;;;;;2.87;1.37;;;18.90;96.30;;;;;;4937319;29;20419;-76
2022/10/05 15:12:33;;;;;;;2.90;1.43;;;18.80;96.30;;;;;;4936510;29;20474;-75
2022/10/05 15:15:24;;;;;;;1.53;1.30;;;18.60;96.30;;;;;;4935843;29;20431;-75
2022/10/05 15:17:53;;;;;;;1.63;1.30;;;18.50;96.30;;;;;;4935683;29;20434;-75
2022/10/05 15:20:57;;;;;;;3.97;1.37;;;18.40;96.30;;;;;;4935726;29;20779;-75
2022/10/05 15:23:39;;;;;;;7.20;1.20;;;18.50;96.30;;;;;;4899837;29;20468;-75
2022/10/05 15:26:31;;;;;;;1.70;1.20;;;18.30;96.30;;;;;;4934636;29;20419;-75
2022/10/05 15:29:17;;;;;;;1.73;1.60;;;18.20;96.30;;;;;;4936736;29;20414;-75
2022/10/05 15:32:13;;;;;;;4.50;1.53;;;18.10;96.30;;;;;;4936896;29;21038;-75
2022/10/05 15:34:47;;;;;;;4.57;1.70;;;18.00;96.30;;;;;;4937023;29;20388;-75
2022/10/05 15:37:24;;;;;;;2.17;1.40;;;17.90;96.30;;;;;;4936478;29;20406;-75
2022/10/05 15:40:03;;;;;;;3.30;1.50;;;17.90;96.30;;;;;;4936681;29;20411;-76
2022/10/05 15:42:37;;;;;;;1.70;1.60;;;17.70;96.30;;;;;;4936556;29;21057;-75
2022/10/05 15:45:22;;;;;;;3.77;1.30;;;17.60;96.30;;;;;;4936643;29;20455;-76
2022/10/05 15:48:27;;;;;;;4.20;1.63;;;17.50;96.30;;;;;;4936447;29;20864;-75
2022/10/05 15:51:14;;;;;;;2.60;1.80;;;17.50;96.30;;;;;;4928624;29;20439;-75
2022/10/05 15:57:17;;;;;;;4.80;1.80;;;17.20;96.30;;;;;;4936225;29;20426;-75
2022/10/05 15:59:52;;;;;;;4.30;1.90;;;16.90;96.30;;;;;;4935883;29;20427;-76
2022/10/05 16:02:37;;;;;;;2.17;1.90;;;16.90;96.30;;;;;;4936193;29;20463;-75
2022/10/05 16:08:52;;;;;;;3.53;1.73;;;16.70;96.30;;;;;;4936115;29;20399;-75
2022/10/05 16:11:35;;;;;;;8.83;2.03;;;16.70;96.30;;;;;;4935943;29;20953;-76
2022/10/05 16:14:37;;;;;;;2.73;2.10;;;16.60;96.30;;;;;;4936083;29;20459;-75
2022/10/05 16:17:26;;;;;;;5.93;1.73;;;16.50;96.30;;;;;;4927062;29;20434;-75
2022/10/05 16:20:13;;;;;;;3.27;1.83;;;16.50;96.30;;;;;;4925391;29;20806;-75
2022/10/05 16:23:00;;;;;;;4.30;1.93;;;16.50;96.30;;;;;;4934879;29;20470;-75
2022/10/05 16:25:41;;;;;;;4.30;3.67;;;16.30;96.30;;;;;;4935981;29;20410;-75
2022/10/05 16:28:49;;;;;;;2.83;2.20;;;16.30;96.30;;;;;;4935631;29;20391;-74
2022/10/05 16:31:39;;;;;;;2.50;2.30;;;16.20;96.30;;;;;;4934917;29;20443;-75
2022/10/05 16:34:53;;;;;;;2.03;1.90;;;16.10;96.30;;;;;;4935795;29;20395;-74
2022/10/05 16:37:37;;;;;;;3.83;1.60;;;16.10;96.30;;;;;;4934329;29;20434;-74
2022/10/05 16:40:30;;;;;;;2.47;1.97;;;15.90;96.30;;;;;;4935266;29;20479;-75
2022/10/05 16:43:02;;;;;;;2.50;2.30;;;15.80;96.30;;;;;;4934189;29;20479;-75
2022/10/05 16:45:50;;;;;;;3.97;3.20;;;15.70;96.30;;;;;;4928852;29;20897;-77
2022/10/05 16:48:24;;;;;;;4.23;2.43;;;15.60;96.30;;;;;;4930405;29;20423;-76
2022/10/05 16:51:19;;;;;;;2.80;1.77;;;15.60;96.30;;;;;;4932175;29;20442;-75
2022/10/05 16:53:53;;;;;;;8.60;3.47;;;15.50;96.30;;;;;;4933455;29;20499;-77
2022/10/05 16:56:26;;;;;;;3.43;2.17;;;15.40;96.30;;;;;;4925646;29;20420;-78
2022/10/05 16:59:09;;;;;;;5.60;3.30;;;15.30;96.30;;;;;;4930128;29;20928;-77
2022/10/05 17:04:34;;;;;;;4.50;3.40;;;15.20;96.30;;;;;;988377;26;20986;-78
2022/10/05 17:07:33;;;;;;;2.17;1.97;;;15.20;96.30;;;;;;4991944;28;20409;-78
2022/10/05 17:10:08;;;;;;;2.63;2.07;;;15.20;96.30;;;;;;4973916;28;20484;-78
2022/10/05 17:12:56;;;;;;;5.10;2.20;;;15.20;96.30;;;;;;4975574;28;20456;-77
2022/10/05 17:15:34;;;;;;;4.33;2.73;;;15.10;96.30;;;;;;4971250;28;20418;-78
2022/10/05 17:18:09;;;;;;;3.20;2.23;;;15.10;96.30;;;;;;4985286;28;20925;-77
2022/10/05 17:20:38;;;;;;;6.53;2.73;;;15.10;96.30;;;;;;4983002;28;20444;-78
2022/10/05 17:23:29;;;;;;;6.20;2.23;;;15.10;96.30;;;;;;4993120;28;21038;-77
2022/10/05 17:26:08;;;;;;;7.23;4.40;;;15.20;96.30;;;;;;4991132;28;20413;-78
2022/10/05 17:28:40;;;;;;;7.53;4.37;;;15.00;96.30;;;;;;4984149;28;20432;-77
2022/10/05 17:31:21;;;;;;;7.20;4.80;;;15.10;96.30;;;;;;4971742;28;20442;-77
2022/10/05 17:33:58;;;;;;;6.40;4.30;;;15.10;96.30;;;;;;4971899;28;20422;-77
2022/10/05 17:36:55;;;;;;;5.47;2.97;;;15.00;96.30;;;;;;4973793;28;20416;-77
2022/10/05 17:39:42;;;;;;;129.93;97.00;;;15.00;96.30;;;;;;4971657;28;20949;-77
2022/10/05 17:42:28;;;;;;;7.97;6.70;;;15.00;96.30;;;;;;4973207;28;20501;-77
2022/10/05 17:44:57;;;;;;;6.30;3.40;;;15.10;96.30;;;;;;4971360;28;20977;-77
2022/10/05 17:48:03;;;;;;;14.67;13.30;;;15.10;96.30;;;;;;4971771;28;20748;-77
2022/10/05 17:56:31;;;;;;;3.93;3.50;;;15.20;96.30;;;;;;4973261;28;20416;-77
2022/10/05 17:59:00;;;;;;;2.40;2.20;;;15.20;96.30;;;;;;4974060;28;20472;-77
2022/10/05 18:01:39;;;;;;;2.13;1.90;;;15.20;96.30;;;;;;4992561;28;20486;-77
2022/10/05 18:04:10;;;;;;;8.47;5.47;;;15.10;96.30;;;;;;4991407;28;20452;-77
2022/10/05 18:06:58;;;;;;;45.27;40.27;;;15.20;96.30;;;;;;4985830;28;20422;-77
2022/10/05 18:09:24;;;;;;;17.73;11.23;;;15.10;96.30;;;;;;4984259;28;20440;-77
2022/10/05 18:12:15;;;;;;;9.67;8.67;;;15.00;96.30;;;;;;4983300;28;20539;-77
2022/10/05 18:15:01;;;;;;;8.60;7.67;;;15.10;96.30;;;;;;4985243;28;20433;-77
2022/10/05 18:17:42;;;;;;;9.37;7.00;;;15.10;96.30;;;;;;4986490;28;20447;-77
2022/10/05 18:20:13;;;;;;;9.90;7.23;;;15.10;96.30;;;;;;4983380;28;20405;-77
2022/10/05 18:22:38;;;;;;;87.60;56.23;;;15.20;96.30;;;;;;4984971;28;20555;-77
2022/10/05 18:25:04;;;;;;;87.80;56.70;;;15.10;96.30;;;;;;4984516;28;20421;-77
2022/10/05 18:27:34;;;;;;;88.53;46.90;;;15.00;96.30;;;;;;4986766;28;20236;-77
2022/10/05 18:30:05;;;;;;;12.23;7.97;;;14.90;96.30;;;;;;4983386;28;20425;-77
2022/10/05 18:32:53;;;;;;;21.30;14.57;;;14.80;96.30;;;;;;4980610;28;20429;-77
2022/10/05 18:35:30;;;;;;;22.57;13.03;;;14.70;96.30;;;;;;4983841;28;20791;-77
2022/10/05 18:38:04;;;;;;;14.53;9.10;;;14.70;96.30;;;;;;4986110;28;20511;-77
2022/10/05 18:40:56;;;;;;;7.83;4.30;;;14.70;96.30;;;;;;4988120;28;20417;-77